sensor_id;sensor_type;location;lat;lon;timestamp;P1;durP1;ratioP1;P2;durP2;ratioP2
59366;SDS011;45163;47.690;11.770;2023-07-02T00:01:43;229.07;;;214.77;;
59366;SDS011;45163;47.690;11.770;2023-07-02T00:04:09;217.03;;;204.33;;
59366;SDS011;45163;47.690;11.770;2023-07-02T00:06:39;226.33;;;213.53;;
59366;SDS011;45163;47.690;11.770;2023-07-02T00:09:06;191.90;;;181.03;;
59366;SDS011;45163;47.690;11.770;2023-07-02T00:11:32;218.87;;;205.97;;
59366;SDS011;45163;47.690;11.770;2023-07-02T00:13:58;205.57;;;193.03;;
59366;SDS011;45163;47.690;11.770;2023-07-02T00:16:24;220.90;;;206.83;;
59366;SDS011;45163;47.690;11.770;2023-07-02T00:18:50;239.27;;;223.17;;
59366;SDS011;45163;47.690;11.770;2023-07-02T00:21:19;234.37;;;218.33;;
59366;SDS011;45163;47.690;11.770;2023-07-02T00:23:46;244.50;;;228.57;;
59366;SDS011;45163;47.690;11.770;2023-07-02T00:26:13;233.57;;;218.80;;
59366;SDS011;45163;47.690;11.770;2023-07-02T00:28:39;225.73;;;211.60;;
59366;SDS011;45163;47.690;11.770;2023-07-02T00:31:05;233.60;;;218.87;;
59366;SDS011;45163;47.690;11.770;2023-07-02T00:33:31;224.13;;;211.03;;
59366;SDS011;45163;47.690;11.770;2023-07-02T00:35:57;207.93;;;195.60;;
59366;SDS011;45163;47.690;11.770;2023-07-02T00:38:26;223.00;;;209.60;;
59366;SDS011;45163;47.690;11.770;2023-07-02T00:40:52;215.53;;;202.80;;
59366;SDS011;45163;47.690;11.770;2023-07-02T00:43:18;195.13;;;183.83;;
59366;SDS011;45163;47.690;11.770;2023-07-02T00:45:44;182.40;;;171.90;;
59366;SDS011;45163;47.690;11.770;2023-07-02T00:48:11;189.57;;;178.77;;
59366;SDS011;45163;47.690;11.770;2023-07-02T00:50:37;178.97;;;168.67;;
59366;SDS011;45163;47.690;11.770;2023-07-02T00:53:04;177.33;;;166.87;;
59366;SDS011;45163;47.690;11.770;2023-07-02T00:55:30;185.40;;;174.70;;
59366;SDS011;45163;47.690;11.770;2023-07-02T00:57:56;189.13;;;178.07;;
59366;SDS011;45163;47.690;11.770;2023-07-02T01:00:23;194.80;;;183.50;;
59366;SDS011;45163;47.690;11.770;2023-07-02T01:02:55;186.20;;;175.13;;
59366;SDS011;45163;47.690;11.770;2023-07-02T01:05:26;143.40;;;134.73;;
59366;SDS011;45163;47.690;11.770;2023-07-02T01:07:57;144.93;;;136.07;;
59366;SDS011;45163;47.690;11.770;2023-07-02T01:10:24;133.43;;;125.33;;
59366;SDS011;45163;47.690;11.770;2023-07-02T01:12:50;132.63;;;124.73;;
59366;SDS011;45163;47.690;11.770;2023-07-02T01:15:16;137.40;;;129.27;;
59366;SDS011;45163;47.690;11.770;2023-07-02T01:17:43;130.57;;;122.87;;
59366;SDS011;45163;47.690;11.770;2023-07-02T01:20:09;123.40;;;116.10;;
59366;SDS011;45163;47.690;11.770;2023-07-02T01:22:36;145.23;;;136.50;;
59366;SDS011;45163;47.690;11.770;2023-07-02T01:25:03;122.47;;;115.03;;
59366;SDS011;45163;47.690;11.770;2023-07-02T01:27:29;126.50;;;119.07;;
59366;SDS011;45163;47.690;11.770;2023-07-02T01:29:55;134.00;;;125.70;;
59366;SDS011;45163;47.690;11.770;2023-07-02T01:32:22;136.43;;;127.77;;
59366;SDS011;45163;47.690;11.770;2023-07-02T01:34:48;127.77;;;119.90;;
59366;SDS011;45163;47.690;11.770;2023-07-02T01:37:15;156.43;;;146.37;;
59366;SDS011;45163;47.690;11.770;2023-07-02T01:39:42;156.30;;;146.50;;
59366;SDS011;45163;47.690;11.770;2023-07-02T01:42:09;139.20;;;130.23;;
59366;SDS011;45163;47.690;11.770;2023-07-02T01:44:36;123.70;;;116.13;;
59366;SDS011;45163;47.690;11.770;2023-07-02T01:47:04;120.67;;;113.23;;
59366;SDS011;45163;47.690;11.770;2023-07-02T01:49:30;132.03;;;123.83;;
59366;SDS011;45163;47.690;11.770;2023-07-02T01:51:56;119.33;;;111.97;;
59366;SDS011;45163;47.690;11.770;2023-07-02T01:54:23;121.60;;;114.07;;
59366;SDS011;45163;47.690;11.770;2023-07-02T01:56:52;116.57;;;109.43;;
59366;SDS011;45163;47.690;11.770;2023-07-02T01:59:19;128.07;;;119.87;;
59366;SDS011;45163;47.690;11.770;2023-07-02T02:01:45;181.30;;;169.30;;
59366;SDS011;45163;47.690;11.770;2023-07-02T02:04:11;154.67;;;144.57;;
59366;SDS011;45163;47.690;11.770;2023-07-02T02:06:38;173.40;;;162.23;;
59366;SDS011;45163;47.690;11.770;2023-07-02T02:09:05;158.00;;;148.03;;
59366;SDS011;45163;47.690;11.770;2023-07-02T02:11:32;172.30;;;161.27;;
59366;SDS011;45163;47.690;11.770;2023-07-02T02:13:59;193.83;;;181.23;;
59366;SDS011;45163;47.690;11.770;2023-07-02T02:16:28;191.83;;;179.17;;
59366;SDS011;45163;47.690;11.770;2023-07-02T02:18:55;147.23;;;137.70;;
59366;SDS011;45163;47.690;11.770;2023-07-02T02:21:21;170.53;;;159.20;;
59366;SDS011;45163;47.690;11.770;2023-07-02T02:23:48;223.50;;;209.03;;
59366;SDS011;45163;47.690;11.770;2023-07-02T02:26:14;221.60;;;207.13;;
59366;SDS011;45163;47.690;11.770;2023-07-02T02:28:41;226.70;;;212.50;;
59366;SDS011;45163;47.690;11.770;2023-07-02T02:31:07;209.17;;;195.93;;
59366;SDS011;45163;47.690;11.770;2023-07-02T02:33:33;183.40;;;171.43;;
59366;SDS011;45163;47.690;11.770;2023-07-02T02:36:01;218.40;;;204.77;;
59366;SDS011;45163;47.690;11.770;2023-07-02T02:38:28;250.10;;;234.93;;
59366;SDS011;45163;47.690;11.770;2023-07-02T02:40:54;242.17;;;227.33;;
59366;SDS011;45163;47.690;11.770;2023-07-02T02:43:20;208.63;;;195.30;;
59366;SDS011;45163;47.690;11.770;2023-07-02T02:45:46;186.17;;;174.13;;
59366;SDS011;45163;47.690;11.770;2023-07-02T02:48:12;214.67;;;201.10;;
59366;SDS011;45163;47.690;11.770;2023-07-02T02:50:39;217.17;;;203.77;;
59366;SDS011;45163;47.690;11.770;2023-07-02T02:53:07;194.83;;;182.37;;
59366;SDS011;45163;47.690;11.770;2023-07-02T02:55:34;221.40;;;207.93;;
59366;SDS011;45163;47.690;11.770;2023-07-02T02:58:01;207.57;;;194.60;;
59366;SDS011;45163;47.690;11.770;2023-07-02T03:00:27;194.03;;;181.33;;
59366;SDS011;45163;47.690;11.770;2023-07-02T03:02:53;189.13;;;176.73;;
59366;SDS011;45163;47.690;11.770;2023-07-02T03:05:20;194.50;;;181.97;;
59366;SDS011;45163;47.690;11.770;2023-07-02T03:07:46;184.20;;;172.43;;
59366;SDS011;45163;47.690;11.770;2023-07-02T03:10:11;161.33;;;151.17;;
59366;SDS011;45163;47.690;11.770;2023-07-02T03:12:37;180.63;;;169.03;;
59366;SDS011;45163;47.690;11.770;2023-07-02T03:15:03;216.87;;;202.97;;
59366;SDS011;45163;47.690;11.770;2023-07-02T03:17:30;216.30;;;202.77;;
59366;SDS011;45163;47.690;11.770;2023-07-02T03:19:56;230.13;;;215.87;;
59366;SDS011;45163;47.690;11.770;2023-07-02T03:22:22;208.07;;;194.77;;
59366;SDS011;45163;47.690;11.770;2023-07-02T03:24:48;212.67;;;199.07;;
59366;SDS011;45163;47.690;11.770;2023-07-02T03:27:14;204.30;;;191.37;;
59366;SDS011;45163;47.690;11.770;2023-07-02T03:29:40;176.33;;;164.70;;
59366;SDS011;45163;47.690;11.770;2023-07-02T03:32:06;213.40;;;200.37;;
59366;SDS011;45163;47.690;11.770;2023-07-02T03:34:33;230.17;;;216.13;;
59366;SDS011;45163;47.690;11.770;2023-07-02T03:36:59;229.23;;;215.37;;
59366;SDS011;45163;47.690;11.770;2023-07-02T03:39:25;225.00;;;211.23;;
59366;SDS011;45163;47.690;11.770;2023-07-02T03:41:50;195.13;;;182.67;;
59366;SDS011;45163;47.690;11.770;2023-07-02T03:44:16;174.53;;;163.10;;
59366;SDS011;45163;47.690;11.770;2023-07-02T03:46:43;153.57;;;143.73;;
59366;SDS011;45163;47.690;11.770;2023-07-02T03:49:09;139.77;;;130.63;;
59366;SDS011;45163;47.690;11.770;2023-07-02T03:51:35;144.87;;;135.30;;
59366;SDS011;45163;47.690;11.770;2023-07-02T03:54:00;161.73;;;150.97;;
59366;SDS011;45163;47.690;11.770;2023-07-02T03:56:27;177.87;;;166.50;;
59366;SDS011;45163;47.690;11.770;2023-07-02T03:58:53;163.17;;;152.27;;
59366;SDS011;45163;47.690;11.770;2023-07-02T04:01:19;150.03;;;140.13;;
59366;SDS011;45163;47.690;11.770;2023-07-02T04:03:48;164.00;;;153.40;;
59366;SDS011;45163;47.690;11.770;2023-07-02T04:06:15;153.10;;;143.40;;
59366;SDS011;45163;47.690;11.770;2023-07-02T04:08:42;170.43;;;159.77;;
59366;SDS011;45163;47.690;11.770;2023-07-02T04:11:09;168.83;;;158.27;;
59366;SDS011;45163;47.690;11.770;2023-07-02T04:13:35;164.50;;;153.93;;
59366;SDS011;45163;47.690;11.770;2023-07-02T04:16:01;162.20;;;152.00;;
59366;SDS011;45163;47.690;11.770;2023-07-02T04:18:27;178.23;;;167.40;;
59366;SDS011;45163;47.690;11.770;2023-07-02T04:20:55;146.70;;;137.90;;
59366;SDS011;45163;47.690;11.770;2023-07-02T04:23:21;153.40;;;144.03;;
59366;SDS011;45163;47.690;11.770;2023-07-02T04:25:47;147.07;;;138.20;;
59366;SDS011;45163;47.690;11.770;2023-07-02T04:28:13;149.07;;;140.07;;
59366;SDS011;45163;47.690;11.770;2023-07-02T04:30:39;145.87;;;137.03;;
59366;SDS011;45163;47.690;11.770;2023-07-02T04:33:05;156.83;;;147.40;;
59366;SDS011;45163;47.690;11.770;2023-07-02T04:35:31;145.20;;;136.50;;
59366;SDS011;45163;47.690;11.770;2023-07-02T04:37:57;150.00;;;140.80;;
59366;SDS011;45163;47.690;11.770;2023-07-02T04:40:24;160.10;;;150.30;;
59366;SDS011;45163;47.690;11.770;2023-07-02T04:42:50;142.30;;;133.80;;
59366;SDS011;45163;47.690;11.770;2023-07-02T04:45:23;134.67;;;126.60;;
59366;SDS011;45163;47.690;11.770;2023-07-02T04:47:50;144.93;;;136.13;;
59366;SDS011;45163;47.690;11.770;2023-07-02T04:50:16;143.17;;;134.57;;
59366;SDS011;45163;47.690;11.770;2023-07-02T04:52:45;145.37;;;136.50;;
59366;SDS011;45163;47.690;11.770;2023-07-02T04:55:11;146.80;;;137.93;;
59366;SDS011;45163;47.690;11.770;2023-07-02T04:57:37;179.67;;;168.90;;
59366;SDS011;45163;47.690;11.770;2023-07-02T05:00:03;162.30;;;152.23;;
59366;SDS011;45163;47.690;11.770;2023-07-02T05:02:31;144.37;;;135.23;;
59366;SDS011;45163;47.690;11.770;2023-07-02T05:04:57;151.23;;;141.87;;
59366;SDS011;45163;47.690;11.770;2023-07-02T05:07:23;146.63;;;137.77;;
59366;SDS011;45163;47.690;11.770;2023-07-02T05:09:49;129.70;;;122.07;;
59366;SDS011;45163;47.690;11.770;2023-07-02T05:12:18;133.03;;;125.23;;
59366;SDS011;45163;47.690;11.770;2023-07-02T05:14:44;136.97;;;128.90;;
59366;SDS011;45163;47.690;11.770;2023-07-02T05:17:10;126.90;;;119.43;;
59366;SDS011;45163;47.690;11.770;2023-07-02T05:19:36;136.90;;;128.77;;
59366;SDS011;45163;47.690;11.770;2023-07-02T05:22:03;131.77;;;123.93;;
59366;SDS011;45163;47.690;11.770;2023-07-02T05:24:29;131.67;;;123.77;;
59366;SDS011;45163;47.690;11.770;2023-07-02T05:26:54;132.37;;;124.43;;
59366;SDS011;45163;47.690;11.770;2023-07-02T05:29:20;137.47;;;129.27;;
59366;SDS011;45163;47.690;11.770;2023-07-02T05:31:46;134.17;;;126.20;;
59366;SDS011;45163;47.690;11.770;2023-07-02T05:34:12;133.13;;;125.13;;
59366;SDS011;45163;47.690;11.770;2023-07-02T05:36:38;130.30;;;122.57;;
59366;SDS011;45163;47.690;11.770;2023-07-02T05:39:04;124.93;;;117.43;;
59366;SDS011;45163;47.690;11.770;2023-07-02T05:41:30;130.27;;;122.63;;
59366;SDS011;45163;47.690;11.770;2023-07-02T05:43:57;138.47;;;130.40;;
59366;SDS011;45163;47.690;11.770;2023-07-02T05:46:23;117.80;;;110.83;;
59366;SDS011;45163;47.690;11.770;2023-07-02T05:48:50;120.00;;;112.60;;
59366;SDS011;45163;47.690;11.770;2023-07-02T05:51:25;113.77;;;106.77;;
59366;SDS011;45163;47.690;11.770;2023-07-02T05:53:51;110.93;;;104.17;;
59366;SDS011;45163;47.690;11.770;2023-07-02T05:56:18;131.90;;;124.10;;
59366;SDS011;45163;47.690;11.770;2023-07-02T05:58:45;153.30;;;143.83;;
59366;SDS011;45163;47.690;11.770;2023-07-02T06:01:12;182.03;;;171.03;;
59366;SDS011;45163;47.690;11.770;2023-07-02T06:03:38;178.37;;;167.37;;
59366;SDS011;45163;47.690;11.770;2023-07-02T06:06:04;194.73;;;182.43;;
59366;SDS011;45163;47.690;11.770;2023-07-02T06:08:30;180.77;;;170.13;;
59366;SDS011;45163;47.690;11.770;2023-07-02T06:10:56;162.47;;;153.10;;
59366;SDS011;45163;47.690;11.770;2023-07-02T06:13:22;175.00;;;164.50;;
59366;SDS011;45163;47.690;11.770;2023-07-02T06:15:48;186.33;;;175.23;;
59366;SDS011;45163;47.690;11.770;2023-07-02T06:18:14;191.43;;;180.03;;
59366;SDS011;45163;47.690;11.770;2023-07-02T06:20:40;198.70;;;187.03;;
59366;SDS011;45163;47.690;11.770;2023-07-02T06:23:06;201.70;;;189.77;;
59366;SDS011;45163;47.690;11.770;2023-07-02T06:25:32;217.07;;;203.83;;
59366;SDS011;45163;47.690;11.770;2023-07-02T06:27:58;202.33;;;189.80;;
59366;SDS011;45163;47.690;11.770;2023-07-02T06:30:25;202.00;;;189.60;;
59366;SDS011;45163;47.690;11.770;2023-07-02T06:32:51;196.27;;;184.30;;
59366;SDS011;45163;47.690;11.770;2023-07-02T06:35:18;204.53;;;192.27;;
59366;SDS011;45163;47.690;11.770;2023-07-02T06:37:44;219.87;;;206.80;;
59366;SDS011;45163;47.690;11.770;2023-07-02T06:40:11;214.27;;;201.30;;
59366;SDS011;45163;47.690;11.770;2023-07-02T06:42:37;207.73;;;195.10;;
59366;SDS011;45163;47.690;11.770;2023-07-02T06:45:04;208.67;;;196.53;;
59366;SDS011;45163;47.690;11.770;2023-07-02T06:47:30;220.27;;;208.20;;
59366;SDS011;45163;47.690;11.770;2023-07-02T06:49:56;211.67;;;200.00;;
59366;SDS011;45163;47.690;11.770;2023-07-02T06:52:22;209.43;;;196.90;;
59366;SDS011;45163;47.690;11.770;2023-07-02T06:54:48;174.57;;;164.10;;
59366;SDS011;45163;47.690;11.770;2023-07-02T06:57:14;211.40;;;198.70;;
59366;SDS011;45163;47.690;11.770;2023-07-02T06:59:40;137.77;;;128.97;;
59366;SDS011;45163;47.690;11.770;2023-07-02T07:02:06;46.80;;;43.80;;
59366;SDS011;45163;47.690;11.770;2023-07-02T07:04:32;40.03;;;37.67;;
59366;SDS011;45163;47.690;11.770;2023-07-02T07:07:00;49.60;;;46.80;;
59366;SDS011;45163;47.690;11.770;2023-07-02T07:09:28;39.63;;;37.40;;
59366;SDS011;45163;47.690;11.770;2023-07-02T07:11:55;31.03;;;29.30;;
59366;SDS011;45163;47.690;11.770;2023-07-02T07:14:21;34.33;;;32.33;;
59366;SDS011;45163;47.690;11.770;2023-07-02T07:16:47;37.27;;;35.17;;
59366;SDS011;45163;47.690;11.770;2023-07-02T07:19:13;44.77;;;42.27;;
59366;SDS011;45163;47.690;11.770;2023-07-02T07:21:39;49.57;;;46.77;;
59366;SDS011;45163;47.690;11.770;2023-07-02T07:24:05;43.67;;;41.17;;
59366;SDS011;45163;47.690;11.770;2023-07-02T07:26:31;43.47;;;41.00;;
59366;SDS011;45163;47.690;11.770;2023-07-02T07:28:57;50.70;;;47.90;;
59366;SDS011;45163;47.690;11.770;2023-07-02T07:31:24;72.57;;;68.47;;
59366;SDS011;45163;47.690;11.770;2023-07-02T07:33:50;59.60;;;56.23;;
59366;SDS011;45163;47.690;11.770;2023-07-02T07:36:16;73.27;;;69.13;;
59366;SDS011;45163;47.690;11.770;2023-07-02T07:38:43;69.07;;;65.20;;
59366;SDS011;45163;47.690;11.770;2023-07-02T07:41:09;59.30;;;55.93;;
59366;SDS011;45163;47.690;11.770;2023-07-02T07:43:35;81.70;;;77.13;;
59366;SDS011;45163;47.690;11.770;2023-07-02T07:46:01;75.63;;;71.20;;
59366;SDS011;45163;47.690;11.770;2023-07-02T07:48:27;71.53;;;67.43;;
59366;SDS011;45163;47.690;11.770;2023-07-02T07:50:53;81.23;;;76.63;;
59366;SDS011;45163;47.690;11.770;2023-07-02T07:53:19;87.67;;;82.63;;
59366;SDS011;45163;47.690;11.770;2023-07-02T07:55:45;104.97;;;99.00;;
59366;SDS011;45163;47.690;11.770;2023-07-02T07:58:11;109.27;;;102.87;;
59366;SDS011;45163;47.690;11.770;2023-07-02T08:00:37;117.53;;;110.03;;
59366;SDS011;45163;47.690;11.770;2023-07-02T08:03:03;73.63;;;68.97;;
59366;SDS011;45163;47.690;11.770;2023-07-02T08:05:32;76.60;;;72.20;;
59366;SDS011;45163;47.690;11.770;2023-07-02T08:07:58;82.80;;;78.17;;
59366;SDS011;45163;47.690;11.770;2023-07-02T08:10:24;106.03;;;100.17;;
59366;SDS011;45163;47.690;11.770;2023-07-02T08:12:50;106.57;;;100.27;;
59366;SDS011;45163;47.690;11.770;2023-07-02T08:15:18;127.30;;;120.00;;
59366;SDS011;45163;47.690;11.770;2023-07-02T08:17:44;129.20;;;121.97;;
59366;SDS011;45163;47.690;11.770;2023-07-02T08:20:10;129.83;;;122.43;;
59366;SDS011;45163;47.690;11.770;2023-07-02T08:22:37;103.80;;;97.90;;
59366;SDS011;45163;47.690;11.770;2023-07-02T08:25:04;105.67;;;99.73;;
59366;SDS011;45163;47.690;11.770;2023-07-02T08:27:33;111.50;;;105.20;;
59366;SDS011;45163;47.690;11.770;2023-07-02T08:30:00;98.23;;;92.63;;
59366;SDS011;45163;47.690;11.770;2023-07-02T08:32:26;121.27;;;114.27;;
59366;SDS011;45163;47.690;11.770;2023-07-02T08:34:52;127.17;;;119.77;;
59366;SDS011;45163;47.690;11.770;2023-07-02T08:37:18;113.90;;;107.30;;
59366;SDS011;45163;47.690;11.770;2023-07-02T08:39:45;116.87;;;110.37;;
59366;SDS011;45163;47.690;11.770;2023-07-02T08:42:11;157.07;;;148.10;;
59366;SDS011;45163;47.690;11.770;2023-07-02T08:44:37;164.47;;;154.97;;
59366;SDS011;45163;47.690;11.770;2023-07-02T08:47:05;143.57;;;135.23;;
59366;SDS011;45163;47.690;11.770;2023-07-02T08:49:31;168.00;;;158.30;;
59366;SDS011;45163;47.690;11.770;2023-07-02T08:51:57;161.10;;;151.77;;
59366;SDS011;45163;47.690;11.770;2023-07-02T08:54:23;117.13;;;110.80;;
59366;SDS011;45163;47.690;11.770;2023-07-02T08:56:49;107.00;;;101.13;;
59366;SDS011;45163;47.690;11.770;2023-07-02T08:59:15;110.40;;;104.17;;
59366;SDS011;45163;47.690;11.770;2023-07-02T09:01:45;120.63;;;113.63;;
59366;SDS011;45163;47.690;11.770;2023-07-02T09:04:18;132.40;;;124.70;;
59366;SDS011;45163;47.690;11.770;2023-07-02T09:06:46;107.10;;;101.10;;
59366;SDS011;45163;47.690;11.770;2023-07-02T09:09:13;98.87;;;93.40;;
59366;SDS011;45163;47.690;11.770;2023-07-02T09:11:49;120.53;;;113.63;;
59366;SDS011;45163;47.690;11.770;2023-07-02T09:14:26;118.13;;;111.50;;
59366;SDS011;45163;47.690;11.770;2023-07-02T09:17:08;79.90;;;75.30;;
59366;SDS011;45163;47.690;11.770;2023-07-02T09:19:35;116.90;;;110.23;;
59366;SDS011;45163;47.690;11.770;2023-07-02T09:22:02;78.27;;;73.63;;
59366;SDS011;45163;47.690;11.770;2023-07-02T09:24:29;53.83;;;50.50;;
59366;SDS011;45163;47.690;11.770;2023-07-02T09:26:57;63.13;;;59.30;;
59366;SDS011;45163;47.690;11.770;2023-07-02T09:29:26;50.90;;;47.77;;
59366;SDS011;45163;47.690;11.770;2023-07-02T09:31:59;55.73;;;52.37;;
59366;SDS011;45163;47.690;11.770;2023-07-02T09:34:33;53.70;;;50.53;;
59366;SDS011;45163;47.690;11.770;2023-07-02T09:37:01;99.43;;;93.50;;
59366;SDS011;45163;47.690;11.770;2023-07-02T09:39:32;149.27;;;140.20;;
59366;SDS011;45163;47.690;11.770;2023-07-02T09:42:05;108.30;;;102.17;;
59366;SDS011;45163;47.690;11.770;2023-07-02T09:44:33;103.80;;;98.00;;
59366;SDS011;45163;47.690;11.770;2023-07-02T09:49:36;107.07;;;101.00;;
59366;SDS011;45163;47.690;11.770;2023-07-02T09:52:08;125.83;;;118.57;;
59366;SDS011;45163;47.690;11.770;2023-07-02T09:54:35;117.60;;;110.90;;
59366;SDS011;45163;47.690;11.770;2023-07-02T09:57:02;112.43;;;106.03;;
59366;SDS011;45163;47.690;11.770;2023-07-02T09:59:28;107.00;;;101.00;;
59366;SDS011;45163;47.690;11.770;2023-07-02T10:01:55;61.07;;;57.37;;
59366;SDS011;45163;47.690;11.770;2023-07-02T10:04:21;79.07;;;74.33;;
59366;SDS011;45163;47.690;11.770;2023-07-02T10:09:17;30.97;;;29.03;;
59366;SDS011;45163;47.690;11.770;2023-07-02T10:11:43;23.47;;;21.97;;
59366;SDS011;45163;47.690;11.770;2023-07-02T10:14:09;28.83;;;27.10;;
59366;SDS011;45163;47.690;11.770;2023-07-02T10:16:48;40.40;;;37.97;;
59366;SDS011;45163;47.690;11.770;2023-07-02T10:19:16;81.37;;;76.57;;
59366;SDS011;45163;47.690;11.770;2023-07-02T10:21:42;50.30;;;47.30;;
59366;SDS011;45163;47.690;11.770;2023-07-02T10:24:17;55.47;;;52.23;;
59366;SDS011;45163;47.690;11.770;2023-07-02T10:26:54;21.80;;;20.30;;
59366;SDS011;45163;47.690;11.770;2023-07-02T10:29:25;23.80;;;22.30;;
59366;SDS011;45163;47.690;11.770;2023-07-02T10:31:52;20.23;;;19.03;;
59366;SDS011;45163;47.690;11.770;2023-07-02T10:34:29;24.53;;;23.00;;
59366;SDS011;45163;47.690;11.770;2023-07-02T10:36:56;20.00;;;18.50;;
59366;SDS011;45163;47.690;11.770;2023-07-02T10:39:22;24.13;;;22.60;;
59366;SDS011;45163;47.690;11.770;2023-07-02T10:41:48;23.40;;;22.07;;
59366;SDS011;45163;47.690;11.770;2023-07-02T10:44:15;19.90;;;18.70;;
59366;SDS011;45163;47.690;11.770;2023-07-02T10:46:47;25.57;;;24.00;;
59366;SDS011;45163;47.690;11.770;2023-07-02T10:49:16;21.17;;;19.87;;
59366;SDS011;45163;47.690;11.770;2023-07-02T10:51:43;21.77;;;20.43;;
59366;SDS011;45163;47.690;11.770;2023-07-02T10:54:09;23.53;;;22.13;;
59366;SDS011;45163;47.690;11.770;2023-07-02T10:56:35;26.23;;;24.67;;
59366;SDS011;45163;47.690;11.770;2023-07-02T10:59:01;20.37;;;19.17;;
59366;SDS011;45163;47.690;11.770;2023-07-02T11:01:28;22.57;;;21.10;;
59366;SDS011;45163;47.690;11.770;2023-07-02T11:03:56;23.83;;;22.40;;
59366;SDS011;45163;47.690;11.770;2023-07-02T11:06:29;19.27;;;18.13;;
59366;SDS011;45163;47.690;11.770;2023-07-02T11:08:58;26.03;;;24.50;;
59366;SDS011;45163;47.690;11.770;2023-07-02T11:11:25;44.63;;;41.93;;
59366;SDS011;45163;47.690;11.770;2023-07-02T11:13:51;52.93;;;49.83;;
59366;SDS011;45163;47.690;11.770;2023-07-02T11:18:44;51.77;;;48.53;;
59366;SDS011;45163;47.690;11.770;2023-07-02T11:21:10;58.93;;;55.50;;
59366;SDS011;45163;47.690;11.770;2023-07-02T11:23:36;45.30;;;42.60;;
59366;SDS011;45163;47.690;11.770;2023-07-02T11:26:02;95.32;;;89.97;;
59366;SDS011;45163;47.690;11.770;2023-07-02T11:28:29;58.75;;;55.35;;
59366;SDS011;45163;47.690;11.770;2023-07-02T11:30:57;26.98;;;25.42;;
59366;SDS011;45163;47.690;11.770;2023-07-02T11:33:36;27.48;;;25.92;;
59366;SDS011;45163;47.690;11.770;2023-07-02T11:36:04;60.72;;;57.28;;
59366;SDS011;45163;47.690;11.770;2023-07-02T11:38:32;53.70;;;50.60;;
59366;SDS011;45163;47.690;11.770;2023-07-02T11:40:59;44.20;;;41.72;;
59366;SDS011;45163;47.690;11.770;2023-07-02T11:43:25;31.58;;;29.77;;
59366;SDS011;45163;47.690;11.770;2023-07-02T11:45:52;31.15;;;29.27;;
59366;SDS011;45163;47.690;11.770;2023-07-02T11:48:18;34.95;;;32.85;;
59366;SDS011;45163;47.690;11.770;2023-07-02T11:50:44;39.92;;;37.53;;
59366;SDS011;45163;47.690;11.770;2023-07-02T11:53:09;30.92;;;29.13;;
59366;SDS011;45163;47.690;11.770;2023-07-02T11:55:36;47.05;;;43.95;;
59366;SDS011;45163;47.690;11.770;2023-07-02T11:58:02;35.92;;;33.65;;
59366;SDS011;45163;47.690;11.770;2023-07-02T12:00:28;45.28;;;42.67;;
59366;SDS011;45163;47.690;11.770;2023-07-02T12:02:54;56.23;;;53.03;;
59366;SDS011;45163;47.690;11.770;2023-07-02T12:05:21;52.50;;;49.50;;
59366;SDS011;45163;47.690;11.770;2023-07-02T12:07:46;67.73;;;63.83;;
59366;SDS011;45163;47.690;11.770;2023-07-02T12:10:13;82.80;;;78.00;;
59366;SDS011;45163;47.690;11.770;2023-07-02T12:12:39;66.50;;;62.53;;
59366;SDS011;45163;47.690;11.770;2023-07-02T12:15:05;67.60;;;63.83;;
59366;SDS011;45163;47.690;11.770;2023-07-02T12:17:31;62.67;;;59.13;;
59366;SDS011;45163;47.690;11.770;2023-07-02T12:19:57;60.77;;;57.30;;
59366;SDS011;45163;47.690;11.770;2023-07-02T12:22:23;56.87;;;53.70;;
59366;SDS011;45163;47.690;11.770;2023-07-02T12:24:49;42.57;;;40.17;;
59366;SDS011;45163;47.690;11.770;2023-07-02T12:27:16;44.03;;;41.63;;
59366;SDS011;45163;47.690;11.770;2023-07-02T12:29:42;45.53;;;42.88;;
59366;SDS011;45163;47.690;11.770;2023-07-02T12:32:08;49.88;;;46.88;;
59366;SDS011;45163;47.690;11.770;2023-07-02T12:34:34;66.35;;;62.42;;
59366;SDS011;45163;47.690;11.770;2023-07-02T12:37:00;55.17;;;51.90;;
59366;SDS011;45163;47.690;11.770;2023-07-02T12:39:26;48.03;;;45.25;;
59366;SDS011;45163;47.690;11.770;2023-07-02T12:41:52;43.28;;;40.78;;
59366;SDS011;45163;47.690;11.770;2023-07-02T12:44:18;35.70;;;33.63;;
59366;SDS011;45163;47.690;11.770;2023-07-02T12:46:44;29.98;;;28.30;;
59366;SDS011;45163;47.690;11.770;2023-07-02T12:49:10;34.35;;;32.30;;
59366;SDS011;45163;47.690;11.770;2023-07-02T12:51:36;31.30;;;29.48;;
59366;SDS011;45163;47.690;11.770;2023-07-02T12:54:02;48.63;;;45.88;;
59366;SDS011;45163;47.690;11.770;2023-07-02T12:56:28;43.83;;;41.33;;
59366;SDS011;45163;47.690;11.770;2023-07-02T12:58:54;53.70;;;50.67;;
59366;SDS011;45163;47.690;11.770;2023-07-02T13:01:20;74.67;;;70.33;;
59366;SDS011;45163;47.690;11.770;2023-07-02T13:03:46;68.43;;;64.57;;
59366;SDS011;45163;47.690;11.770;2023-07-02T13:06:13;57.87;;;54.60;;
59366;SDS011;45163;47.690;11.770;2023-07-02T13:08:40;49.33;;;46.57;;
59366;SDS011;45163;47.690;11.770;2023-07-02T13:11:06;42.90;;;40.50;;
59366;SDS011;45163;47.690;11.770;2023-07-02T13:13:34;44.77;;;42.17;;
59366;SDS011;45163;47.690;11.770;2023-07-02T13:16:02;44.50;;;42.00;;
59366;SDS011;45163;47.690;11.770;2023-07-02T13:18:28;51.57;;;48.43;;
59366;SDS011;45163;47.690;11.770;2023-07-02T13:20:54;63.33;;;59.93;;
59366;SDS011;45163;47.690;11.770;2023-07-02T13:23:20;51.63;;;48.65;;
59366;SDS011;45163;47.690;11.770;2023-07-02T13:25:46;71.30;;;66.97;;
59366;SDS011;45163;47.690;11.770;2023-07-02T13:28:12;68.97;;;64.97;;
59366;SDS011;45163;47.690;11.770;2023-07-02T13:30:38;54.60;;;51.50;;
59366;SDS011;45163;47.690;11.770;2023-07-02T13:33:04;38.10;;;35.90;;
59366;SDS011;45163;47.690;11.770;2023-07-02T13:35:30;39.10;;;36.80;;
59366;SDS011;45163;47.690;11.770;2023-07-02T13:37:57;40.38;;;38.08;;
59366;SDS011;45163;47.690;11.770;2023-07-02T13:40:25;28.52;;;26.95;;
59366;SDS011;45163;47.690;11.770;2023-07-02T13:42:51;46.85;;;44.05;;
59366;SDS011;45163;47.690;11.770;2023-07-02T13:45:17;33.42;;;31.52;;
59366;SDS011;45163;47.690;11.770;2023-07-02T13:47:43;39.72;;;37.42;;
59366;SDS011;45163;47.690;11.770;2023-07-02T13:50:10;30.48;;;28.70;;
59366;SDS011;45163;47.690;11.770;2023-07-02T13:52:36;29.83;;;28.10;;
59366;SDS011;45163;47.690;11.770;2023-07-02T13:55:03;27.80;;;26.20;;
59366;SDS011;45163;47.690;11.770;2023-07-02T13:57:29;29.08;;;27.42;;
59366;SDS011;45163;47.690;11.770;2023-07-02T13:59:55;28.08;;;26.48;;